Flight Track Log - Related Links

Times and Time Zones

All times are in EST time to prevent confusion due to time zone crossing. See the UAL3835 flight status page for this flight to view local times or setup timezone preferences in your user account.

Time Position Orientation Groundspeed Altitude Reporting Facility
EST Latitude Longitude Course Direction KTS MPH feet Rate Location/Type
Thu 10:22:02 AM 38.3717 -81.6494 311° West 200 230 3,000  Level Indianapolis Center
Thu 10:23:03 AM 38.4169 -81.6967 321° Northwest 209 241 6,000 2,304 Climbing Indianapolis Center
Thu 10:24:07 AM 38.4692 -81.7464 323° Northwest 224 258 7,800 1,887 Climbing Indianapolis Center
Thu 10:25:07 AM 38.5275 -81.8019 323° Northwest 254 292 9,900 1,091 Climbing Indianapolis Center
Thu 10:26:08 AM 38.5900 -81.8656 322° Northwest 285 328 10,000 816 Climbing Indianapolis Center
Thu 10:27:00 AM 38.7765 -82.0564 311° West  Level FlightAware Approximate
Thu 10:27:12 AM 38.6600 -81.9442 319° Northwest 328 377 11,600  Level Indianapolis Center
Thu 10:28:13 AM 38.7358 -82.0453 314° West 325 374 13,500 1,736 Climbing Indianapolis Center
Thu 10:29:13 AM 38.8008 -82.1331 314° West 335 386 15,100 1,512 Climbing Indianapolis Center
Thu 10:30:16 AM 38.8661 -82.2183 315° West 333 383 16,600 1,525 Climbing Indianapolis Center
Thu 10:31:15 AM 38.9303 -82.3064 313° West 338 389 18,200 1,610 Climbing Indianapolis Center
Thu 10:32:19 AM 38.9961 -82.3933 314° West 337 388 19,900 1,500 Climbing Indianapolis Center
Thu 10:33:19 AM 39.0608 -82.4817 313° West 339 390 21,300 1,220 Climbing Indianapolis Center
Thu 10:34:22 AM 39.1275 -82.5725 313° West 346 398 22,400 1,024 Climbing Indianapolis Center
Thu 10:35:22 AM 39.1975 -82.6669 314° West 358 412 23,400 1,240 Climbing Indianapolis Center
Thu 10:36:23 AM 39.2669 -82.7611 314° West 362 417 24,900 1,776 Climbing Indianapolis Center
Thu 10:37:27 AM 39.3311 -82.8494 313° West 346 398 27,100 2,177 Climbing Indianapolis Center
Thu 10:38:27 AM 39.3900 -82.9272 314° West 314 361 29,400 2,281 Climbing Indianapolis Center
Thu 10:39:28 AM 39.4531 -83.0156 313° West 286 329 31,700 1,707 Climbing Indianapolis Center
Thu 10:40:30 AM 39.5044 -83.0861 313° West 274 315 32,900 1,091 Climbing Indianapolis Center
Thu 10:41:29 AM 39.5592 -83.1608 314° West 284 327 33,900 537 Climbing Indianapolis Center
Thu 10:42:33 AM 39.6169 -83.2425 313° West 303 349 34,000 49 Climbing Indianapolis Center
Thu 10:43:32 AM 39.6836 -83.3342 313° West 343 395 34,000  Level Indianapolis Center
Thu 10:44:35 AM 39.7547 -83.4328 313° West 368 423 34,000  Level Indianapolis Center
Thu 10:45:36 AM 39.8281 -83.5353 313° West 379 436 34,000  Level Indianapolis Center
Thu 10:46:39 AM 39.9036 -83.6403 313° West 376 433 34,000  Level Indianapolis Center
Thu 10:47:37 AM 39.9733 -83.7389 313° West 370 426 34,000  Level Indianapolis Center
Thu 10:48:39 AM 40.0433 -83.8375 313° West 370 426 34,000  Level Indianapolis Center
Thu 10:49:42 AM 40.1136 -83.9375 313° West 373 429 34,000  Level Indianapolis Center
Thu 10:50:43 AM 40.1839 -84.0367 313° West 373 429 34,000  Level Indianapolis Center
Thu 10:51:43 AM 40.2528 -84.1339 313° West 368 423 34,000  Level Indianapolis Center
Thu 10:52:45 AM 40.3347 -84.2528 312° West 366 421 34,000  Level Indianapolis Center
Thu 10:53:45 AM 40.3950 -84.3564 307° West 359 413 34,000  Level Indianapolis Center
Thu 10:54:49 AM 40.4558 -84.4583 308° West 357 411 34,000  Level Indianapolis Center
Thu 10:55:50 AM 40.5169 -84.5592 309° West 355 409 34,000  Level Indianapolis Center
Thu 10:56:49 AM 40.5769 -84.6608 308° West 353 406 34,000  Level Indianapolis Center
Thu 10:57:53 AM 40.6386 -84.7647 308° West 359 413 34,000  Level Indianapolis Center
Thu 10:58:54 AM 40.7025 -84.8742 308° West 372 428 34,000  Level Indianapolis Center
Thu 10:59:54 AM 40.7686 -84.9881 307° West 386 444 34,000  Level Indianapolis Center
Thu 11:00:57 AM 40.8347 -85.1008 308° West 390 449 34,000  Level Indianapolis Center
Thu 11:01:57 AM 40.9139 -85.2367 308° West 392 451 34,000  Level Indianapolis Center
Thu 11:02:57 AM 40.9806 -85.3531 307° West 395 455 34,000  Level Indianapolis Center
Thu 11:04:01 AM 41.0486 -85.4689 308° West 400 460 34,000  Level Indianapolis Center
Thu 11:05:01 AM 41.1172 -85.5867 308° West 405 466 34,000  Level Indianapolis Center
Thu 11:06:03 AM 41.1842 -85.7061 307° West 407 468 34,000  Level Indianapolis Center
Thu 11:07:05 AM 41.2539 -85.8267 308° West 411 473 34,000  Level Indianapolis Center
Thu 11:08:05 AM 41.3211 -85.9453 307° West 406 467 34,000  Level Indianapolis Center
Thu 11:09:06 AM 41.3872 -86.0631 307° West 402 463 34,000  Level Indianapolis Center
Thu 11:10:20 AM 41.4797 -86.2261 307° West 395 455 34,000  Level Chicago Center
Thu 11:11:21 AM 41.5461 -86.3436 307° West 396 456 34,000  Level Chicago Center
Thu 11:12:22 AM 41.6111 -86.4608 307° West 393 452 34,000  Level Chicago Center
Thu 11:13:23 AM 41.6769 -86.5783 307° West 394 453 34,000  Level Chicago Center
Thu 11:14:25 AM 41.7447 -86.7003 307° West 392 451 34,000  Level Chicago Center
Thu 11:15:26 AM 41.8100 -86.8178 307° West 394 453 34,000  Level Chicago Center
Thu 11:16:27 AM 41.8742 -86.9350 306° West 394 453 34,000  Level Chicago Center
Thu 11:17:28 AM 41.9389 -87.0531 306° West 394 453 34,000 -195 Level Chicago Center
Thu 11:18:30 AM 42.0025 -87.1708 306° West 393 452 33,600 -1,073 Descending Chicago Center
Thu 11:19:31 AM 42.0792 -87.3111 306° West 387 445 31,800 -1,672 Descending Chicago Center
Thu 11:20:32 AM 42.1442 -87.4308 306° West 395 455 30,200 -1,525 Descending Chicago Center
Thu 11:21:33 AM 42.2117 -87.5553 306° West 410 472 28,700 -1,220 Descending Chicago Center
Thu 11:22:35 AM 42.2778 -87.6789 306° West 411 473 27,700 -1,073 Descending Chicago Center
Thu 11:23:36 AM 42.3397 -87.7961 306° West 409 471 26,500 -1,574 Descending Chicago Center
Thu 11:24:37 AM 42.4069 -87.9214 306° West 411 473 24,500 -1,967 Descending Chicago Center
Thu 11:25:38 AM 42.4703 -88.0422 305° West 402 463 22,500 -2,164 Descending Chicago Center
Thu 11:26:39 AM 42.5428 -88.1778 306° West 376 433 20,100 -2,146 Descending Chicago Center
Thu 11:27:41 AM 42.6042 -88.2942 306° West 378 435 18,100 -1,805 Descending Chicago Center
Thu 11:28:42 AM 42.6628 -88.4064 305° West 370 426 16,400 -1,623 Descending Chicago Center
Thu 11:29:43 AM 42.7161 -88.5089 305° West 345 397 14,800 -1,180 Descending Chicago Center
Thu 11:30:44 AM 42.7717 -88.6158 305° West 345 397 14,000 -443 Descending Chicago Center
Thu 11:31:45 AM 42.8272 -88.7222 305° West 345 397 13,900 -49 Descending Chicago Center
Thu 11:32:47 AM 42.8803 -88.8236 306° West 334 384 13,900 -195 Level Chicago Center
Thu 11:33:48 AM 42.9331 -88.9297 304° West 335 386 13,500 -934 Descending Chicago Center
Thu 11:34:49 AM 42.9294 -89.0303 267° West 274 315 12,000 -2,361 Descending Chicago Center
Thu 11:35:50 AM 42.9217 -89.1267 264° West 255 293 8,700 -3,317 Descending Chicago Center
Thu 11:36:52 AM 42.9161 -89.2219 265° West 253 291 5,200 -2,829 Descending Chicago Center
Thu 11:37:53 AM 42.9600 -89.2992 308° West 236 272 2,900 -1,230 Descending Chicago Center
Thu 11:38:54 AM 43.0033 -89.3414 325° Northwest 210 242 2,700 -146 Descending Chicago Center
Thu 11:39:56 AM 43.0472 -89.3475 354° North 188 216 2,600 -390 Descending Chicago Center
Thu 11:40:57 AM 43.0794 -89.3450 North 147 169 1,900 -689 Descending Chicago Center
Thu 11:41:58 AM 43.1111 -89.3442 North 126 145 1,200 -689 Descending Chicago Center
Thu 11:43:00 AM 43.1333 -89.3333 North  Level FlightAware Approximate
Thu 11:50:00 AM 43.1399 -89.3375 North  Level Estimated

Login

Don't have an account? Register now (free) for customized features, flight alerts, and more!